Pagrindinis puslapis
METAR-TAF:

METAR-TAF

Oro uostai :

Badenas-Badenas, Vokietija

platuma: 48-46-43N, ilguma: 008-04-47E, Aukštis: 124 m

Dabartinis oras

Ataskaita buvo paskelbta 32 minutes, ne 14:20 UTC
Vėjas 9 kt iš Šiaurės/Šiaurės Rytų
Temperatūra 21°C
Drėgmė 35%
Slėgis 1019 hPa
Matomumas 10 km arba daugiau
nėra debesų žemiau 1500 m ir nėra kamuolinių lietaus debesų

METAR: EDSB 301420Z 03009KT CAVOK 21/05 Q1019

Laikas: 16:52 (14:52 UTC)

Prognozė

Ataskaita buvo paskelbta 3 valandos ir 52 minutes, ne 11:00 UTC
Prognozė galioja nuo 30 metu 12 UTC su 31 metu 12 UTC
Vėjas 15 kt iš Šiaurės Rytų su gūsio iki 25 kt
Matomumas 10 km arba daugiau
nėra debesų žemiau 1500 m ir nėra kamuolinių lietaus debesų
Laikinai
nuo 30 metu 12 UTC su 30 metu 17 UTC
Vėjas 14 kt iš Šiaurės Rytų
Tapsmas
nuo 30 metu 17 UTC su 30 metu 19 UTC
Vėjas 8 kt iš Šiaurės Rytų
Tapsmas
nuo 31 metu 08 UTC su 31 metu 10 UTC
Vėjas 14 kt iš Šiaurės/Šiaurės Rytų

TAF: EDSB 301100Z 3012/3112 04015G25KT CAVOK TEMPO 3012/3017 04014KT BECMG 3017/3019 04008KT BECMG 3108/3110 02014KT

Orai ataskaitas ir orų prognozės (METAR, TAF).

turimą stotys yra geltonos ir raudonos taškus žemėlapyje.

Perkelti pele per norėdami pamatyti stoties vardą.

Tada spustelėkite, norėdami matyti oro stebėjimo ir prognozės.

Norėdami pakeisti žemėlapį: spustelėkite ant žalios mygtukų su juodo kryžiaus žemyn,; žalią mygtuką su brūkšneliu, jei norite nutolinti; arba žalių rodyklių gretimoms žemėlapius.


METAR-TAF: